GLD1144 MDPP-MYNN
Flight info
| Callsign | GLD1144 |
|---|---|
| Flight time | 1h 22m |
| Altitude | 40000 |
| Route | MALV3C MALVN Y396 BITAC DCT HINZY DCT |
| Aircraft | C750/M-SDFGIRY/S |
Departure
| Time | 2026-05-05 23:07 |
|---|---|
| Airport | Gregorio Luperon International Airport (MDPP) |
Arrival
| Time | 2026-05-06 00:29 |
|---|---|
| Airport | Lynden Pindling International Airport (MYNN) |
| Time | Latitude | Longitude | Altitude | Speed | Heading |
|---|---|---|---|---|---|
| 2026-05-05 22:47 | 19.75732 | -70.56204 | 31 ft | 0 kts | 252° |
| 2026-05-05 23:02 | 19.75728 | -70.56215 | 31 ft | 7 kts | 256° |
| 2026-05-05 23:02 | 19.75715 | -70.56273 | 31 ft | 9 kts | 253° |
| 2026-05-05 23:03 | 19.75701 | -70.56328 | 31 ft | 12 kts | 257° |
| 2026-05-05 23:03 | 19.75673 | -70.56434 | 31 ft | 18 kts | 249° |
| 2026-05-05 23:03 | 19.75633 | -70.56565 | 31 ft | 19 kts | 278° |
| 2026-05-05 23:03 | 19.75624 | -70.56696 | 31 ft | 18 kts | 253° |
| 2026-05-05 23:04 | 19.75586 | -70.56825 | 31 ft | 20 kts | 252° |
| 2026-05-05 23:04 | 19.75536 | -70.56990 | 31 ft | 23 kts | 252° |
| 2026-05-05 23:04 | 19.75578 | -70.57095 | 31 ft | 17 kts | 313° |
| 2026-05-05 23:04 | 19.75641 | -70.57165 | 30 ft | 4 kts | 314° |
| 2026-05-05 23:05 | 19.75642 | -70.57165 | 30 ft | 0 kts | 314° |
| 2026-05-05 23:05 | 19.75651 | -70.57176 | 30 ft | 6 kts | 314° |
| 2026-05-05 23:05 | 19.75695 | -70.57235 | 30 ft | 14 kts | 293° |
| 2026-05-05 23:05 | 19.75690 | -70.57331 | 29 ft | 13 kts | 252° |
| 2026-05-05 23:06 | 19.75661 | -70.57430 | 29 ft | 17 kts | 253° |
| 2026-05-05 23:06 | 19.75640 | -70.57530 | 29 ft | 3 kts | 177° |
| 2026-05-05 23:06 | 19.75647 | -70.57483 | 29 ft | 10 kts | 73° |
| 2026-05-05 23:06 | 19.75731 | -70.57190 | 30 ft | 96 kts | 73° |
| 2026-05-05 23:07 | 19.75992 | -70.56297 | 271 ft | 142 kts | 74° |
| 2026-05-05 23:07 | 19.76324 | -70.55192 | 640 ft | 169 kts | 72° |
| 2026-05-05 23:07 | 19.76694 | -70.53929 | 1118 ft | 193 kts | 77° |
| 2026-05-05 23:07 | 19.77267 | -70.52524 | 1619 ft | 231 kts | 57° |
| 2026-05-05 23:08 | 19.78727 | -70.51518 | 2051 ft | 272 kts | 24° |
| 2026-05-05 23:08 | 19.80565 | -70.50971 | 3098 ft | 275 kts | 17° |
| 2026-05-05 23:08 | 19.82427 | -70.50447 | 4156 ft | 278 kts | 19° |
| 2026-05-05 23:08 | 19.84285 | -70.49848 | 5227 ft | 279 kts | 18° |
| 2026-05-05 23:09 | 19.86111 | -70.49250 | 6426 ft | 272 kts | 16° |
| 2026-05-05 23:09 | 19.87950 | -70.48670 | 7298 ft | 280 kts | 16° |
| 2026-05-05 23:09 | 19.89841 | -70.48079 | 8277 ft | 285 kts | 17° |
| 2026-05-05 23:09 | 19.91771 | -70.47486 | 9208 ft | 295 kts | 15° |
| 2026-05-05 23:10 | 19.93850 | -70.47268 | 10028 ft | 303 kts | 2° |
| 2026-05-05 23:10 | 19.95951 | -70.47240 | 10930 ft | 305 kts | 359° |
| 2026-05-05 23:10 | 19.98078 | -70.47810 | 11071 ft | 333 kts | 331° |
| 2026-05-05 23:10 | 19.99852 | -70.49507 | 11084 ft | 359 kts | 303° |
| 2026-05-05 23:11 | 20.00693 | -70.52006 | 11611 ft | 360 kts | 275° |
| 2026-05-05 23:11 | 20.00763 | -70.54641 | 12546 ft | 356 kts | 268° |
| 2026-05-05 23:11 | 20.00663 | -70.57271 | 13420 ft | 355 kts | 267° |
| 2026-05-05 23:11 | 20.00639 | -70.59902 | 14113 ft | 359 kts | 271° |
| 2026-05-05 23:12 | 20.00782 | -70.62576 | 14769 ft | 361 kts | 273° |
| 2026-05-05 23:12 | 20.00924 | -70.65260 | 15322 ft | 368 kts | 271° |
| 2026-05-05 23:12 | 20.00970 | -70.67986 | 16049 ft | 368 kts | 270° |
| 2026-05-05 23:12 | 20.01012 | -70.70711 | 16767 ft | 371 kts | 271° |
| 2026-05-05 23:13 | 20.01103 | -70.73428 | 17460 ft | 374 kts | 271° |
| 2026-05-05 23:13 | 20.01204 | -70.76235 | 18198 ft | 377 kts | 271° |
| 2026-05-05 23:13 | 20.01279 | -70.79039 | 18816 ft | 381 kts | 271° |
| 2026-05-05 23:13 | 20.01348 | -70.81868 | 19470 ft | 385 kts | 271° |
| 2026-05-05 23:14 | 20.01429 | -70.84726 | 20138 ft | 388 kts | 271° |
| 2026-05-05 23:14 | 20.01514 | -70.87568 | 20793 ft | 392 kts | 272° |
| 2026-05-05 23:14 | 20.01595 | -70.90478 | 21432 ft | 396 kts | 272° |
| 2026-05-05 23:14 | 20.01673 | -70.93413 | 22099 ft | 400 kts | 272° |
| 2026-05-05 23:15 | 20.01754 | -70.96387 | 22769 ft | 403 kts | 272° |
| 2026-05-05 23:15 | 20.01837 | -70.99386 | 23429 ft | 407 kts | 272° |
| 2026-05-05 23:15 | 20.01919 | -71.02408 | 24011 ft | 410 kts | 272° |
| 2026-05-05 23:15 | 20.02132 | -71.05438 | 24559 ft | 412 kts | 279° |
| 2026-05-05 23:16 | 20.02777 | -71.08414 | 25162 ft | 414 kts | 287° |
| 2026-05-05 23:16 | 20.03827 | -71.11268 | 25756 ft | 416 kts | 295° |
| 2026-05-05 23:16 | 20.05276 | -71.13943 | 26331 ft | 420 kts | 303° |
| 2026-05-05 23:16 | 20.07104 | -71.16382 | 26914 ft | 423 kts | 311° |
| 2026-05-05 23:17 | 20.09276 | -71.18517 | 27485 ft | 428 kts | 319° |
| 2026-05-05 23:17 | 20.11754 | -71.20295 | 28104 ft | 432 kts | 326° |
| 2026-05-05 23:17 | 20.14346 | -71.21920 | 28688 ft | 434 kts | 326° |
| 2026-05-05 23:17 | 20.16944 | -71.23575 | 29219 ft | 437 kts | 326° |
| 2026-05-05 23:18 | 20.19561 | -71.25244 | 29749 ft | 440 kts | 326° |
| 2026-05-05 23:18 | 20.22200 | -71.26913 | 30227 ft | 443 kts | 326° |
| 2026-05-05 23:18 | 20.24858 | -71.28591 | 30621 ft | 446 kts | 326° |
| 2026-05-05 23:18 | 20.27533 | -71.30289 | 31007 ft | 449 kts | 326° |
| 2026-05-05 23:19 | 20.30210 | -71.31991 | 31591 ft | 447 kts | 326° |
| 2026-05-05 23:19 | 20.32880 | -71.33685 | 32146 ft | 446 kts | 326° |
| 2026-05-05 23:19 | 20.35549 | -71.35378 | 32682 ft | 446 kts | 326° |
| 2026-05-05 23:19 | 20.38213 | -71.37074 | 33226 ft | 446 kts | 326° |
| 2026-05-05 23:20 | 20.40737 | -71.38973 | 33745 ft | 443 kts | 319° |
| 2026-05-05 23:20 | 20.42990 | -71.41195 | 34275 ft | 440 kts | 311° |
| 2026-05-05 23:20 | 20.44957 | -71.43678 | 34789 ft | 438 kts | 307° |
| 2026-05-05 23:20 | 20.46841 | -71.46221 | 35311 ft | 436 kts | 307° |
| 2026-05-05 23:21 | 20.48738 | -71.48749 | 35844 ft | 435 kts | 307° |
| 2026-05-05 23:21 | 20.50626 | -71.51270 | 36372 ft | 434 kts | 307° |
| 2026-05-05 23:21 | 20.52500 | -71.53794 | 36919 ft | 433 kts | 306° |
| 2026-05-05 23:21 | 20.54367 | -71.56311 | 37475 ft | 432 kts | 307° |
| 2026-05-05 23:22 | 20.56231 | -71.58812 | 38110 ft | 429 kts | 307° |
| 2026-05-05 23:22 | 20.58088 | -71.61304 | 38717 ft | 427 kts | 307° |
| 2026-05-05 23:22 | 20.59928 | -71.63781 | 39229 ft | 426 kts | 306° |
| 2026-05-05 23:22 | 20.61766 | -71.66256 | 39766 ft | 421 kts | 306° |
| 2026-05-05 23:23 | 20.63587 | -71.68709 | 40026 ft | 426 kts | 306° |
| 2026-05-05 23:23 | 20.65456 | -71.71228 | 40029 ft | 438 kts | 306° |
| 2026-05-05 23:23 | 20.69325 | -71.76442 | 40041 ft | 458 kts | 306° |
| 2026-05-05 23:24 | 20.73331 | -71.81846 | 40047 ft | 475 kts | 306° |
| 2026-05-05 23:24 | 20.77491 | -71.87462 | 40044 ft | 484 kts | 306° |
| 2026-05-05 23:25 | 20.81665 | -71.93104 | 40046 ft | 486 kts | 306° |
| 2026-05-05 23:25 | 20.85877 | -71.98802 | 40035 ft | 487 kts | 306° |
| 2026-05-05 23:26 | 20.90076 | -72.04490 | 40030 ft | 487 kts | 306° |
| 2026-05-05 23:26 | 20.94271 | -72.10176 | 40027 ft | 487 kts | 306° |
| 2026-05-05 23:27 | 20.98467 | -72.15871 | 40029 ft | 487 kts | 306° |
| 2026-05-05 23:27 | 21.02658 | -72.21565 | 40028 ft | 487 kts | 306° |
| 2026-05-05 23:28 | 21.06847 | -72.27261 | 40024 ft | 486 kts | 307° |
| 2026-05-05 23:28 | 21.11032 | -72.32958 | 40024 ft | 486 kts | 307° |
| 2026-05-05 23:29 | 21.15209 | -72.38651 | 40030 ft | 486 kts | 307° |
| 2026-05-05 23:29 | 21.19386 | -72.44348 | 40048 ft | 486 kts | 307° |
| 2026-05-05 23:30 | 21.23566 | -72.50056 | 40036 ft | 486 kts | 307° |
| 2026-05-05 23:30 | 21.27745 | -72.55767 | 40038 ft | 486 kts | 307° |
| 2026-05-05 23:31 | 21.31914 | -72.61472 | 40037 ft | 486 kts | 307° |
| 2026-05-05 23:31 | 21.36073 | -72.67168 | 40037 ft | 485 kts | 307° |
| 2026-05-05 23:32 | 21.40231 | -72.72870 | 40036 ft | 485 kts | 307° |
| 2026-05-05 23:32 | 21.44362 | -72.78539 | 40037 ft | 485 kts | 307° |
| 2026-05-05 23:33 | 21.48542 | -72.84283 | 40038 ft | 485 kts | 307° |
| 2026-05-05 23:33 | 21.52697 | -72.89996 | 40038 ft | 485 kts | 307° |
| 2026-05-05 23:34 | 21.56844 | -72.95707 | 40046 ft | 485 kts | 308° |
| 2026-05-05 23:34 | 21.60955 | -73.01372 | 40040 ft | 479 kts | 308° |
| 2026-05-05 23:35 | 21.65034 | -73.06999 | 40042 ft | 480 kts | 308° |
| 2026-05-05 23:35 | 21.69142 | -73.12672 | 40043 ft | 483 kts | 308° |
| 2026-05-05 23:36 | 21.73268 | -73.18378 | 40048 ft | 483 kts | 308° |
| 2026-05-05 23:36 | 21.77390 | -73.24082 | 40048 ft | 483 kts | 308° |
| 2026-05-05 23:37 | 21.81512 | -73.29793 | 40047 ft | 483 kts | 308° |
| 2026-05-05 23:37 | 21.85610 | -73.35475 | 40046 ft | 478 kts | 308° |
| 2026-05-05 23:38 | 21.89687 | -73.41136 | 40045 ft | 479 kts | 308° |
| 2026-05-05 23:38 | 21.93773 | -73.46815 | 40059 ft | 479 kts | 308° |
| 2026-05-05 23:39 | 21.97829 | -73.52458 | 40048 ft | 476 kts | 308° |
| 2026-05-05 23:39 | 22.01901 | -73.58127 | 40048 ft | 478 kts | 308° |
| 2026-05-05 23:40 | 22.05948 | -73.63771 | 40051 ft | 478 kts | 308° |
| 2026-05-05 23:40 | 22.09997 | -73.69421 | 40051 ft | 471 kts | 308° |
| 2026-05-05 23:41 | 22.13995 | -73.75006 | 40037 ft | 470 kts | 308° |
| 2026-05-05 23:41 | 22.17996 | -73.80602 | 40036 ft | 471 kts | 308° |
| 2026-05-05 23:42 | 22.22002 | -73.86210 | 40047 ft | 471 kts | 308° |
| 2026-05-05 23:42 | 22.25998 | -73.91810 | 40039 ft | 471 kts | 308° |
| 2026-05-05 23:43 | 22.29992 | -73.97415 | 40064 ft | 471 kts | 308° |
| 2026-05-05 23:43 | 22.33954 | -74.02979 | 40041 ft | 463 kts | 309° |
| 2026-05-05 23:44 | 22.37874 | -74.08491 | 40042 ft | 463 kts | 309° |
| 2026-05-05 23:44 | 22.41135 | -74.13080 | 40041 ft | 464 kts | 309° |
| 2026-05-05 23:45 | 22.45063 | -74.18611 | 40040 ft | 464 kts | 309° |
| 2026-05-05 23:45 | 22.48987 | -74.24142 | 40040 ft | 464 kts | 309° |
| 2026-05-05 23:46 | 22.52908 | -74.29679 | 40041 ft | 464 kts | 308° |
| 2026-05-05 23:46 | 22.56831 | -74.35222 | 40041 ft | 464 kts | 308° |
| 2026-05-05 23:47 | 22.60743 | -74.40756 | 40037 ft | 462 kts | 309° |
| 2026-05-05 23:47 | 22.64647 | -74.46284 | 40050 ft | 462 kts | 308° |
| 2026-05-05 23:48 | 22.68545 | -74.51809 | 40047 ft | 460 kts | 308° |
| 2026-05-05 23:48 | 22.72426 | -74.57316 | 40042 ft | 460 kts | 308° |
| 2026-05-05 23:49 | 22.76309 | -74.62832 | 40047 ft | 460 kts | 308° |
| 2026-05-05 23:49 | 22.80184 | -74.68342 | 40048 ft | 456 kts | 308° |
| 2026-05-05 23:50 | 22.84008 | -74.73785 | 40044 ft | 456 kts | 308° |
| 2026-05-05 23:50 | 22.87857 | -74.79270 | 40042 ft | 457 kts | 308° |
| 2026-05-05 23:51 | 22.91703 | -74.84756 | 40044 ft | 457 kts | 308° |
| 2026-05-05 23:51 | 22.95554 | -74.90256 | 40045 ft | 457 kts | 308° |
| 2026-05-05 23:52 | 22.99402 | -74.95756 | 40048 ft | 457 kts | 308° |
| 2026-05-05 23:52 | 23.03242 | -75.01251 | 40066 ft | 457 kts | 308° |
| 2026-05-05 23:53 | 23.07053 | -75.06711 | 40043 ft | 452 kts | 308° |
| 2026-05-05 23:53 | 23.10841 | -75.12142 | 40041 ft | 451 kts | 308° |
| 2026-05-05 23:54 | 23.14633 | -75.17589 | 40043 ft | 451 kts | 308° |
| 2026-05-05 23:54 | 23.18421 | -75.23033 | 40038 ft | 452 kts | 308° |
| 2026-05-05 23:55 | 23.22184 | -75.28449 | 40046 ft | 451 kts | 308° |
| 2026-05-05 23:55 | 23.25968 | -75.33899 | 40046 ft | 451 kts | 308° |
| 2026-05-05 23:56 | 23.29751 | -75.39355 | 40041 ft | 451 kts | 308° |
| 2026-05-05 23:56 | 23.33530 | -75.44810 | 40039 ft | 451 kts | 308° |
| 2026-05-05 23:57 | 23.37303 | -75.50262 | 40040 ft | 451 kts | 308° |
| 2026-05-05 23:57 | 23.41061 | -75.55701 | 40048 ft | 447 kts | 308° |
| 2026-05-05 23:58 | 23.44797 | -75.61109 | 40050 ft | 447 kts | 308° |
| 2026-05-05 23:58 | 23.48531 | -75.66524 | 40045 ft | 447 kts | 308° |
| 2026-05-05 23:59 | 23.52266 | -75.71944 | 40045 ft | 447 kts | 308° |
| 2026-05-05 23:59 | 23.55998 | -75.77367 | 40045 ft | 447 kts | 308° |
| 2026-05-06 00:00 | 23.59731 | -75.82796 | 40039 ft | 448 kts | 308° |
| 2026-05-06 00:00 | 23.63707 | -75.88585 | 40040 ft | 448 kts | 308° |
| 2026-05-06 00:01 | 23.67196 | -75.93671 | 40041 ft | 448 kts | 308° |
| 2026-05-06 00:01 | 23.70928 | -75.99116 | 40041 ft | 448 kts | 308° |
| 2026-05-06 00:02 | 23.74634 | -76.04529 | 40041 ft | 448 kts | 308° |
| 2026-05-06 00:02 | 23.78342 | -76.09953 | 40042 ft | 444 kts | 308° |
| 2026-05-06 00:03 | 23.82041 | -76.15367 | 40035 ft | 445 kts | 308° |
| 2026-05-06 00:03 | 23.83905 | -76.18097 | 39700 ft | 452 kts | 308° |
| 2026-05-06 00:03 | 23.85680 | -76.20706 | 39147 ft | 401 kts | 308° |
| 2026-05-06 00:04 | 23.87378 | -76.23196 | 38574 ft | 419 kts | 308° |
| 2026-05-06 00:04 | 23.89140 | -76.25769 | 38007 ft | 426 kts | 308° |
| 2026-05-06 00:04 | 23.90945 | -76.28417 | 37438 ft | 439 kts | 308° |
| 2026-05-06 00:04 | 23.92760 | -76.31093 | 36862 ft | 435 kts | 308° |
| 2026-05-06 00:05 | 23.96342 | -76.36358 | 35726 ft | 429 kts | 308° |
| 2026-05-06 00:05 | 23.98121 | -76.38972 | 35165 ft | 427 kts | 307° |
| 2026-05-06 00:05 | 23.99884 | -76.41570 | 34604 ft | 424 kts | 307° |
| 2026-05-06 00:06 | 24.01646 | -76.44166 | 34061 ft | 428 kts | 307° |
| 2026-05-06 00:06 | 24.03457 | -76.46831 | 33471 ft | 440 kts | 307° |
| 2026-05-06 00:06 | 24.05274 | -76.49510 | 32890 ft | 439 kts | 307° |
| 2026-05-06 00:06 | 24.07088 | -76.52188 | 32310 ft | 437 kts | 307° |
| 2026-05-06 00:07 | 24.08896 | -76.54857 | 31735 ft | 436 kts | 306° |
| 2026-05-06 00:07 | 24.10699 | -76.57517 | 31160 ft | 433 kts | 306° |
| 2026-05-06 00:07 | 24.12483 | -76.60154 | 30595 ft | 431 kts | 306° |
| 2026-05-06 00:07 | 24.14264 | -76.62787 | 30014 ft | 429 kts | 306° |
| 2026-05-06 00:08 | 24.16162 | -76.65595 | 29386 ft | 425 kts | 306° |
| 2026-05-06 00:08 | 24.17811 | -76.68035 | 28861 ft | 422 kts | 306° |
| 2026-05-06 00:08 | 24.19523 | -76.70571 | 28318 ft | 419 kts | 306° |
| 2026-05-06 00:08 | 24.21252 | -76.73131 | 27765 ft | 416 kts | 306° |
| 2026-05-06 00:09 | 24.22965 | -76.75671 | 27221 ft | 414 kts | 306° |
| 2026-05-06 00:09 | 24.24675 | -76.78206 | 26674 ft | 411 kts | 306° |
| 2026-05-06 00:09 | 24.26366 | -76.80715 | 26136 ft | 408 kts | 305° |
| 2026-05-06 00:09 | 24.28052 | -76.83219 | 25598 ft | 406 kts | 305° |
| 2026-05-06 00:10 | 24.29722 | -76.85698 | 25066 ft | 403 kts | 305° |
| 2026-05-06 00:10 | 24.31362 | -76.88135 | 24544 ft | 401 kts | 305° |
| 2026-05-06 00:10 | 24.33014 | -76.90592 | 24017 ft | 399 kts | 305° |
| 2026-05-06 00:10 | 24.34655 | -76.93033 | 23469 ft | 396 kts | 305° |
| 2026-05-06 00:11 | 24.36284 | -76.95458 | 22928 ft | 394 kts | 305° |
| 2026-05-06 00:11 | 24.37909 | -76.97876 | 22409 ft | 393 kts | 305° |
| 2026-05-06 00:11 | 24.39522 | -77.00280 | 21894 ft | 391 kts | 305° |
| 2026-05-06 00:11 | 24.41132 | -77.02679 | 21379 ft | 389 kts | 305° |
| 2026-05-06 00:12 | 24.42732 | -77.05064 | 20870 ft | 388 kts | 305° |
| 2026-05-06 00:12 | 24.44329 | -77.07446 | 20360 ft | 386 kts | 305° |
| 2026-05-06 00:12 | 24.45917 | -77.09817 | 19858 ft | 385 kts | 305° |
| 2026-05-06 00:12 | 24.47499 | -77.12180 | 19340 ft | 383 kts | 305° |
| 2026-05-06 00:13 | 24.49072 | -77.14530 | 18840 ft | 382 kts | 305° |
| 2026-05-06 00:13 | 24.50641 | -77.16875 | 18338 ft | 381 kts | 305° |
| 2026-05-06 00:13 | 24.52202 | -77.19209 | 17802 ft | 377 kts | 305° |
| 2026-05-06 00:13 | 24.53751 | -77.21524 | 17306 ft | 374 kts | 305° |
| 2026-05-06 00:14 | 24.55282 | -77.23817 | 16817 ft | 371 kts | 305° |
| 2026-05-06 00:14 | 24.56804 | -77.26096 | 16329 ft | 368 kts | 305° |
| 2026-05-06 00:14 | 24.58313 | -77.28357 | 15847 ft | 366 kts | 305° |
| 2026-05-06 00:14 | 24.59813 | -77.30605 | 15364 ft | 363 kts | 304° |
| 2026-05-06 00:15 | 24.61299 | -77.32835 | 14885 ft | 360 kts | 304° |
| 2026-05-06 00:15 | 24.62775 | -77.35048 | 14410 ft | 358 kts | 304° |
| 2026-05-06 00:15 | 24.64244 | -77.37252 | 13937 ft | 356 kts | 304° |
| 2026-05-06 00:15 | 24.65698 | -77.39438 | 13447 ft | 353 kts | 304° |
| 2026-05-06 00:16 | 24.67139 | -77.41602 | 12981 ft | 350 kts | 304° |
| 2026-05-06 00:16 | 24.68544 | -77.43711 | 12528 ft | 329 kts | 304° |
| 2026-05-06 00:16 | 24.69852 | -77.45674 | 12107 ft | 307 kts | 304° |
| 2026-05-06 00:16 | 24.71070 | -77.47507 | 11715 ft | 289 kts | 303° |
| 2026-05-06 00:17 | 24.72230 | -77.49256 | 11345 ft | 278 kts | 303° |
| 2026-05-06 00:17 | 24.73361 | -77.50961 | 10987 ft | 275 kts | 303° |
| 2026-05-06 00:17 | 24.74492 | -77.52650 | 10624 ft | 273 kts | 304° |
| 2026-05-06 00:17 | 24.75947 | -77.54011 | 10226 ft | 280 kts | 327° |
| 2026-05-06 00:18 | 24.77751 | -77.54825 | 9900 ft | 280 kts | 336° |
| 2026-05-06 00:18 | 24.79594 | -77.55543 | 9523 ft | 280 kts | 336° |
| 2026-05-06 00:18 | 24.81425 | -77.56273 | 9163 ft | 279 kts | 335° |
| 2026-05-06 00:18 | 24.83245 | -77.57013 | 8786 ft | 278 kts | 335° |
| 2026-05-06 00:19 | 24.85052 | -77.57745 | 8440 ft | 276 kts | 336° |
| 2026-05-06 00:19 | 24.86843 | -77.58466 | 8079 ft | 271 kts | 336° |
| 2026-05-06 00:19 | 24.88598 | -77.59172 | 7726 ft | 267 kts | 336° |
| 2026-05-06 00:19 | 24.90341 | -77.59876 | 7377 ft | 265 kts | 336° |
| 2026-05-06 00:20 | 24.92065 | -77.60573 | 7030 ft | 263 kts | 336° |
| 2026-05-06 00:20 | 24.93781 | -77.61265 | 6686 ft | 262 kts | 336° |
| 2026-05-06 00:20 | 24.95493 | -77.61956 | 6330 ft | 261 kts | 336° |
| 2026-05-06 00:20 | 24.97194 | -77.62643 | 5976 ft | 260 kts | 336° |
| 2026-05-06 00:21 | 24.98891 | -77.63329 | 5631 ft | 260 kts | 337° |
| 2026-05-06 00:21 | 25.00570 | -77.64007 | 5283 ft | 251 kts | 337° |
| 2026-05-06 00:21 | 25.02191 | -77.64661 | 4965 ft | 245 kts | 338° |
| 2026-05-06 00:21 | 25.03744 | -77.65290 | 4644 ft | 237 kts | 338° |
| 2026-05-06 00:22 | 25.05287 | -77.65914 | 4331 ft | 235 kts | 338° |
| 2026-05-06 00:22 | 25.06824 | -77.66537 | 4025 ft | 235 kts | 338° |
| 2026-05-06 00:22 | 25.08361 | -77.67159 | 3711 ft | 235 kts | 338° |
| 2026-05-06 00:22 | 25.09898 | -77.67781 | 3354 ft | 233 kts | 338° |
| 2026-05-06 00:23 | 25.11452 | -77.68165 | 2960 ft | 229 kts | 0° |
| 2026-05-06 00:23 | 25.12950 | -77.67661 | 2685 ft | 224 kts | 25° |
| 2026-05-06 00:23 | 25.14310 | -77.66836 | 2441 ft | 224 kts | 28° |
| 2026-05-06 00:23 | 25.15631 | -77.65921 | 2156 ft | 224 kts | 33° |
| 2026-05-06 00:24 | 25.16872 | -77.64908 | 1992 ft | 214 kts | 39° |
| 2026-05-06 00:24 | 25.17666 | -77.63620 | 1946 ft | 198 kts | 71° |
| 2026-05-06 00:24 | 25.17728 | -77.62124 | 1971 ft | 202 kts | 102° |
| 2026-05-06 00:24 | 25.17061 | -77.60772 | 1985 ft | 202 kts | 133° |
| 2026-05-06 00:25 | 25.16049 | -77.59698 | 2026 ft | 202 kts | 136° |
| 2026-05-06 00:25 | 25.15370 | -77.58952 | 2016 ft | 205 kts | 136° |
| 2026-05-06 00:25 | 25.14379 | -77.57827 | 2021 ft | 203 kts | 135° |
| 2026-05-06 00:25 | 25.13381 | -77.56707 | 2011 ft | 204 kts | 136° |
| 2026-05-06 00:26 | 25.12397 | -77.55605 | 1981 ft | 204 kts | 136° |
| 2026-05-06 00:26 | 25.11392 | -77.54480 | 1720 ft | 203 kts | 136° |
| 2026-05-06 00:26 | 25.10414 | -77.53390 | 1454 ft | 202 kts | 136° |
| 2026-05-06 00:26 | 25.09470 | -77.52340 | 1185 ft | 170 kts | 136° |
| 2026-05-06 00:27 | 25.08738 | -77.51521 | 961 ft | 134 kts | 138° |
| 2026-05-06 00:27 | 25.08105 | -77.50819 | 766 ft | 127 kts | 134° |
| 2026-05-06 00:27 | 25.07489 | -77.50129 | 650 ft | 126 kts | 133° |
| 2026-05-06 00:27 | 25.06897 | -77.49454 | 532 ft | 120 kts | 134° |
| 2026-05-06 00:28 | 25.06306 | -77.48796 | 383 ft | 121 kts | 135° |
| 2026-05-06 00:28 | 25.05706 | -77.48132 | 193 ft | 122 kts | 136° |
| 2026-05-06 00:28 | 25.05113 | -77.47484 | 33 ft | 118 kts | 135° |
| 2026-05-06 00:28 | 25.04580 | -77.46898 | 10 ft | 95 kts | 135° |
| 2026-05-06 00:29 | 25.04202 | -77.46478 | 7 ft | 51 kts | 136° |
| 2026-05-06 00:29 | 25.04026 | -77.46284 | 8 ft | 25 kts | 136° |
| 2026-05-06 00:29 | 25.03914 | -77.46158 | 8 ft | 26 kts | 135° |
| 2026-05-06 00:29 | 25.03788 | -77.46021 | 10 ft | 25 kts | 135° |
| 2026-05-06 00:30 | 25.03655 | -77.45872 | 9 ft | 28 kts | 134° |
| 2026-05-06 00:30 | 25.03519 | -77.45724 | 7 ft | 27 kts | 135° |
| 2026-05-06 00:30 | 25.03398 | -77.45632 | 6 ft | 18 kts | 186° |
| 2026-05-06 00:30 | 25.03306 | -77.45667 | 6 ft | 7 kts | 198° |
| 2026-05-06 00:31 | 25.03256 | -77.45688 | 7 ft | 11 kts | 200° |
| 2026-05-06 00:31 | 25.03172 | -77.45701 | 7 ft | 11 kts | 161° |
| 2026-05-06 00:31 | 25.03117 | -77.45712 | 7 ft | 6 kts | 215° |
| 2026-05-06 00:31 | 25.03102 | -77.45709 | 7 ft | 0 kts | 132° |